sensor_id;sensor_type;location;lat;lon;timestamp;P1;durP1;ratioP1;P2;durP2;ratioP2
39728;SDS011;25402;42.004;23.088;2024-01-15T00:00:20;68.97;;;24.13;;
39728;SDS011;25402;42.004;23.088;2024-01-15T00:02:49;68.20;;;25.80;;
39728;SDS011;25402;42.004;23.088;2024-01-15T00:05:16;59.70;;;23.77;;
39728;SDS011;25402;42.004;23.088;2024-01-15T00:07:43;58.65;;;24.10;;
39728;SDS011;25402;42.004;23.088;2024-01-15T00:10:10;57.85;;;22.85;;
39728;SDS011;25402;42.004;23.088;2024-01-15T00:12:37;56.22;;;23.05;;
39728;SDS011;25402;42.004;23.088;2024-01-15T00:15:07;59.42;;;22.67;;
39728;SDS011;25402;42.004;23.088;2024-01-15T00:17:36;58.55;;;23.10;;
39728;SDS011;25402;42.004;23.088;2024-01-15T00:20:05;53.22;;;21.38;;
39728;SDS011;25402;42.004;23.088;2024-01-15T00:22:33;56.78;;;22.10;;
39728;SDS011;25402;42.004;23.088;2024-01-15T00:25:01;52.33;;;21.55;;
39728;SDS011;25402;42.004;23.088;2024-01-15T00:27:29;56.05;;;21.70;;
39728;SDS011;25402;42.004;23.088;2024-01-15T00:29:56;55.80;;;20.95;;
39728;SDS011;25402;42.004;23.088;2024-01-15T00:32:23;51.47;;;20.75;;
39728;SDS011;25402;42.004;23.088;2024-01-15T00:34:50;50.15;;;21.13;;
39728;SDS011;25402;42.004;23.088;2024-01-15T00:37:18;53.47;;;20.92;;
39728;SDS011;25402;42.004;23.088;2024-01-15T00:39:45;58.50;;;22.60;;
39728;SDS011;25402;42.004;23.088;2024-01-15T00:42:12;50.67;;;20.95;;
39728;SDS011;25402;42.004;23.088;2024-01-15T00:44:40;57.60;;;20.98;;
39728;SDS011;25402;42.004;23.088;2024-01-15T00:47:07;50.45;;;20.92;;
39728;SDS011;25402;42.004;23.088;2024-01-15T00:49:34;56.03;;;21.92;;
39728;SDS011;25402;42.004;23.088;2024-01-15T00:52:01;49.25;;;19.70;;
39728;SDS011;25402;42.004;23.088;2024-01-15T00:54:28;57.65;;;21.88;;
39728;SDS011;25402;42.004;23.088;2024-01-15T00:56:55;50.97;;;20.48;;
39728;SDS011;25402;42.004;23.088;2024-01-15T00:59:23;57.20;;;21.35;;
39728;SDS011;25402;42.004;23.088;2024-01-15T01:01:50;52.97;;;20.85;;
39728;SDS011;25402;42.004;23.088;2024-01-15T01:04:17;51.22;;;20.88;;
39728;SDS011;25402;42.004;23.088;2024-01-15T01:06:44;52.90;;;19.98;;
39728;SDS011;25402;42.004;23.088;2024-01-15T01:09:11;55.40;;;21.05;;
39728;SDS011;25402;42.004;23.088;2024-01-15T01:11:39;48.95;;;19.40;;
39728;SDS011;25402;42.004;23.088;2024-01-15T01:14:06;58.33;;;21.77;;
39728;SDS011;25402;42.004;23.088;2024-01-15T01:16:33;53.28;;;19.83;;
39728;SDS011;25402;42.004;23.088;2024-01-15T01:19:04;53.22;;;20.23;;
39728;SDS011;25402;42.004;23.088;2024-01-15T01:21:32;53.85;;;21.85;;
39728;SDS011;25402;42.004;23.088;2024-01-15T01:23:59;53.55;;;20.95;;
39728;SDS011;25402;42.004;23.088;2024-01-15T01:26:26;57.38;;;21.98;;
39728;SDS011;25402;42.004;23.088;2024-01-15T01:28:54;56.03;;;21.80;;
39728;SDS011;25402;42.004;23.088;2024-01-15T01:31:22;56.55;;;22.67;;
39728;SDS011;25402;42.004;23.088;2024-01-15T01:33:49;63.85;;;22.65;;
39728;SDS011;25402;42.004;23.088;2024-01-15T01:36:17;70.15;;;23.23;;
39728;SDS011;25402;42.004;23.088;2024-01-15T01:38:44;55.65;;;21.95;;
39728;SDS011;25402;42.004;23.088;2024-01-15T01:41:11;62.83;;;22.23;;
39728;SDS011;25402;42.004;23.088;2024-01-15T01:43:38;51.40;;;22.45;;
39728;SDS011;25402;42.004;23.088;2024-01-15T01:46:06;60.55;;;22.08;;
39728;SDS011;25402;42.004;23.088;2024-01-15T01:48:34;57.65;;;22.08;;
39728;SDS011;25402;42.004;23.088;2024-01-15T01:51:02;58.47;;;22.00;;
39728;SDS011;25402;42.004;23.088;2024-01-15T01:53:30;57.38;;;21.40;;
39728;SDS011;25402;42.004;23.088;2024-01-15T01:56:00;57.88;;;21.85;;
39728;SDS011;25402;42.004;23.088;2024-01-15T01:58:28;54.70;;;21.40;;
39728;SDS011;25402;42.004;23.088;2024-01-15T02:00:55;61.72;;;22.17;;
39728;SDS011;25402;42.004;23.088;2024-01-15T02:03:25;64.57;;;22.75;;
39728;SDS011;25402;42.004;23.088;2024-01-15T02:05:52;52.10;;;20.80;;
39728;SDS011;25402;42.004;23.088;2024-01-15T02:08:20;52.47;;;21.38;;
39728;SDS011;25402;42.004;23.088;2024-01-15T02:10:48;51.20;;;20.90;;
39728;SDS011;25402;42.004;23.088;2024-01-15T02:13:15;57.25;;;20.73;;
39728;SDS011;25402;42.004;23.088;2024-01-15T02:15:42;56.78;;;20.98;;
39728;SDS011;25402;42.004;23.088;2024-01-15T02:18:09;56.75;;;21.42;;
39728;SDS011;25402;42.004;23.088;2024-01-15T02:20:37;55.08;;;21.55;;
39728;SDS011;25402;42.004;23.088;2024-01-15T02:23:10;55.30;;;20.90;;
39728;SDS011;25402;42.004;23.088;2024-01-15T02:28:06;51.35;;;19.17;;
39728;SDS011;25402;42.004;23.088;2024-01-15T02:30:36;52.80;;;20.13;;
39728;SDS011;25402;42.004;23.088;2024-01-15T02:33:05;47.53;;;19.25;;
39728;SDS011;25402;42.004;23.088;2024-01-15T02:35:32;53.83;;;20.67;;
39728;SDS011;25402;42.004;23.088;2024-01-15T02:38:01;60.45;;;19.95;;
39728;SDS011;25402;42.004;23.088;2024-01-15T02:40:30;55.33;;;20.92;;
39728;SDS011;25402;42.004;23.088;2024-01-15T02:42:58;57.65;;;20.48;;
39728;SDS011;25402;42.004;23.088;2024-01-15T02:45:25;54.35;;;21.80;;
39728;SDS011;25402;42.004;23.088;2024-01-15T02:47:53;57.63;;;20.67;;
39728;SDS011;25402;42.004;23.088;2024-01-15T02:50:20;57.63;;;21.58;;
39728;SDS011;25402;42.004;23.088;2024-01-15T02:52:47;56.38;;;19.48;;
39728;SDS011;25402;42.004;23.088;2024-01-15T02:55:14;52.10;;;19.25;;
39728;SDS011;25402;42.004;23.088;2024-01-15T02:57:42;53.03;;;20.15;;
39728;SDS011;25402;42.004;23.088;2024-01-15T03:00:10;52.97;;;20.35;;
39728;SDS011;25402;42.004;23.088;2024-01-15T03:02:38;53.65;;;19.75;;
39728;SDS011;25402;42.004;23.088;2024-01-15T03:05:06;48.80;;;18.60;;
39728;SDS011;25402;42.004;23.088;2024-01-15T03:07:33;51.20;;;19.60;;
39728;SDS011;25402;42.004;23.088;2024-01-15T03:10:00;50.15;;;19.85;;
39728;SDS011;25402;42.004;23.088;2024-01-15T03:12:28;64.90;;;21.70;;
39728;SDS011;25402;42.004;23.088;2024-01-15T03:14:56;58.17;;;20.98;;
39728;SDS011;25402;42.004;23.088;2024-01-15T03:17:23;51.05;;;20.52;;
39728;SDS011;25402;42.004;23.088;2024-01-15T03:19:50;54.85;;;20.80;;
39728;SDS011;25402;42.004;23.088;2024-01-15T03:22:17;59.45;;;20.98;;
39728;SDS011;25402;42.004;23.088;2024-01-15T03:24:44;53.65;;;21.33;;
39728;SDS011;25402;42.004;23.088;2024-01-15T03:27:11;55.95;;;23.10;;
39728;SDS011;25402;42.004;23.088;2024-01-15T03:29:40;66.10;;;21.73;;
39728;SDS011;25402;42.004;23.088;2024-01-15T03:32:09;63.42;;;23.27;;
39728;SDS011;25402;42.004;23.088;2024-01-15T03:34:36;78.80;;;22.35;;
39728;SDS011;25402;42.004;23.088;2024-01-15T03:37:03;64.03;;;20.73;;
39728;SDS011;25402;42.004;23.088;2024-01-15T03:39:30;63.30;;;20.52;;
39728;SDS011;25402;42.004;23.088;2024-01-15T03:41:57;64.82;;;20.52;;
39728;SDS011;25402;42.004;23.088;2024-01-15T03:44:24;55.72;;;20.13;;
39728;SDS011;25402;42.004;23.088;2024-01-15T03:46:51;51.83;;;20.10;;
39728;SDS011;25402;42.004;23.088;2024-01-15T03:49:20;55.40;;;20.73;;
39728;SDS011;25402;42.004;23.088;2024-01-15T03:51:47;83.65;;;22.98;;
39728;SDS011;25402;42.004;23.088;2024-01-15T03:54:14;73.78;;;21.23;;
39728;SDS011;25402;42.004;23.088;2024-01-15T03:56:41;61.33;;;21.92;;
39728;SDS011;25402;42.004;23.088;2024-01-15T03:59:08;55.97;;;22.05;;
39728;SDS011;25402;42.004;23.088;2024-01-15T04:01:35;61.10;;;23.30;;
39728;SDS011;25402;42.004;23.088;2024-01-15T04:04:02;67.03;;;22.23;;
39728;SDS011;25402;42.004;23.088;2024-01-15T04:06:31;57.03;;;21.85;;
39728;SDS011;25402;42.004;23.088;2024-01-15T04:08:58;56.05;;;22.20;;
39728;SDS011;25402;42.004;23.088;2024-01-15T04:11:25;209.50;;;24.17;;
39728;SDS011;25402;42.004;23.088;2024-01-15T04:13:53;69.50;;;20.73;;
39728;SDS011;25402;42.004;23.088;2024-01-15T04:16:19;59.17;;;20.17;;
39728;SDS011;25402;42.004;23.088;2024-01-15T04:18:47;51.72;;;19.33;;
39728;SDS011;25402;42.004;23.088;2024-01-15T04:21:14;62.03;;;20.58;;
39728;SDS011;25402;42.004;23.088;2024-01-15T04:23:42;33.88;;;13.75;;
39728;SDS011;25402;42.004;23.088;2024-01-15T04:26:09;52.03;;;16.60;;
39728;SDS011;25402;42.004;23.088;2024-01-15T04:28:36;44.75;;;17.63;;
39728;SDS011;25402;42.004;23.088;2024-01-15T04:31:03;42.78;;;16.08;;
39728;SDS011;25402;42.004;23.088;2024-01-15T04:33:30;47.72;;;16.20;;
39728;SDS011;25402;42.004;23.088;2024-01-15T04:36:01;43.60;;;16.65;;
39728;SDS011;25402;42.004;23.088;2024-01-15T04:38:28;44.08;;;17.13;;
39728;SDS011;25402;42.004;23.088;2024-01-15T04:40:56;43.13;;;18.35;;
39728;SDS011;25402;42.004;23.088;2024-01-15T04:43:23;45.28;;;18.02;;
39728;SDS011;25402;42.004;23.088;2024-01-15T04:45:50;76.38;;;18.20;;
39728;SDS011;25402;42.004;23.088;2024-01-15T04:48:18;47.55;;;18.25;;
39728;SDS011;25402;42.004;23.088;2024-01-15T04:50:45;47.22;;;17.88;;
39728;SDS011;25402;42.004;23.088;2024-01-15T04:53:13;50.13;;;19.63;;
39728;SDS011;25402;42.004;23.088;2024-01-15T04:55:40;42.58;;;20.55;;
39728;SDS011;25402;42.004;23.088;2024-01-15T04:58:09;45.88;;;19.77;;
39728;SDS011;25402;42.004;23.088;2024-01-15T05:00:36;58.45;;;20.25;;
39728;SDS011;25402;42.004;23.088;2024-01-15T05:03:03;53.70;;;21.10;;
39728;SDS011;25402;42.004;23.088;2024-01-15T05:05:30;44.58;;;20.05;;
39728;SDS011;25402;42.004;23.088;2024-01-15T05:07:57;51.67;;;23.33;;
39728;SDS011;25402;42.004;23.088;2024-01-15T05:10:24;58.20;;;24.30;;
39728;SDS011;25402;42.004;23.088;2024-01-15T05:12:51;47.42;;;21.33;;
39728;SDS011;25402;42.004;23.088;2024-01-15T05:15:20;54.35;;;22.00;;
39728;SDS011;25402;42.004;23.088;2024-01-15T05:17:47;50.75;;;21.83;;
39728;SDS011;25402;42.004;23.088;2024-01-15T05:20:14;51.83;;;21.95;;
39728;SDS011;25402;42.004;23.088;2024-01-15T05:22:41;53.45;;;22.65;;
39728;SDS011;25402;42.004;23.088;2024-01-15T05:25:08;55.88;;;22.10;;
39728;SDS011;25402;42.004;23.088;2024-01-15T05:27:35;60.90;;;24.60;;
39728;SDS011;25402;42.004;23.088;2024-01-15T05:30:03;64.97;;;23.77;;
39728;SDS011;25402;42.004;23.088;2024-01-15T05:32:32;59.38;;;23.95;;
39728;SDS011;25402;42.004;23.088;2024-01-15T05:34:59;60.88;;;23.35;;
39728;SDS011;25402;42.004;23.088;2024-01-15T05:37:26;97.20;;;36.65;;
39728;SDS011;25402;42.004;23.088;2024-01-15T05:39:54;68.50;;;23.83;;
39728;SDS011;25402;42.004;23.088;2024-01-15T05:42:20;76.47;;;29.23;;
39728;SDS011;25402;42.004;23.088;2024-01-15T05:44:48;58.97;;;24.60;;
39728;SDS011;25402;42.004;23.088;2024-01-15T05:47:15;69.82;;;25.42;;
39728;SDS011;25402;42.004;23.088;2024-01-15T05:49:46;65.57;;;24.17;;
39728;SDS011;25402;42.004;23.088;2024-01-15T05:52:15;67.10;;;25.80;;
39728;SDS011;25402;42.004;23.088;2024-01-15T05:54:44;72.25;;;27.02;;
39728;SDS011;25402;42.004;23.088;2024-01-15T05:57:11;83.75;;;27.33;;
39728;SDS011;25402;42.004;23.088;2024-01-15T05:59:38;95.88;;;30.83;;
39728;SDS011;25402;42.004;23.088;2024-01-15T06:02:05;95.85;;;34.25;;
39728;SDS011;25402;42.004;23.088;2024-01-15T06:04:32;69.30;;;24.90;;
39728;SDS011;25402;42.004;23.088;2024-01-15T06:07:04;103.07;;;34.13;;
39728;SDS011;25402;42.004;23.088;2024-01-15T06:09:31;101.45;;;31.60;;
39728;SDS011;25402;42.004;23.088;2024-01-15T06:11:58;79.47;;;31.85;;
39728;SDS011;25402;42.004;23.088;2024-01-15T06:14:25;79.13;;;29.95;;
39728;SDS011;25402;42.004;23.088;2024-01-15T06:16:53;70.10;;;27.63;;
39728;SDS011;25402;42.004;23.088;2024-01-15T06:19:20;82.25;;;27.67;;
39728;SDS011;25402;42.004;23.088;2024-01-15T06:21:48;64.32;;;25.73;;
39728;SDS011;25402;42.004;23.088;2024-01-15T06:24:17;75.78;;;28.88;;
39728;SDS011;25402;42.004;23.088;2024-01-15T06:26:46;73.28;;;27.95;;
39728;SDS011;25402;42.004;23.088;2024-01-15T06:29:13;71.60;;;26.23;;
39728;SDS011;25402;42.004;23.088;2024-01-15T06:31:40;71.72;;;26.60;;
39728;SDS011;25402;42.004;23.088;2024-01-15T06:34:08;76.03;;;26.15;;
39728;SDS011;25402;42.004;23.088;2024-01-15T06:36:35;73.70;;;27.13;;
39728;SDS011;25402;42.004;23.088;2024-01-15T06:39:02;77.15;;;28.73;;
39728;SDS011;25402;42.004;23.088;2024-01-15T06:41:31;68.50;;;25.95;;
39728;SDS011;25402;42.004;23.088;2024-01-15T06:43:58;75.95;;;26.35;;
39728;SDS011;25402;42.004;23.088;2024-01-15T06:46:25;70.45;;;25.15;;
39728;SDS011;25402;42.004;23.088;2024-01-15T06:48:52;66.03;;;23.95;;
39728;SDS011;25402;42.004;23.088;2024-01-15T06:51:19;64.60;;;25.55;;
39728;SDS011;25402;42.004;23.088;2024-01-15T06:53:47;77.55;;;24.27;;
39728;SDS011;25402;42.004;23.088;2024-01-15T06:56:14;64.75;;;24.55;;
39728;SDS011;25402;42.004;23.088;2024-01-15T06:58:42;68.75;;;26.60;;
39728;SDS011;25402;42.004;23.088;2024-01-15T07:01:10;66.32;;;27.75;;
39728;SDS011;25402;42.004;23.088;2024-01-15T07:03:37;69.57;;;27.85;;
39728;SDS011;25402;42.004;23.088;2024-01-15T07:06:05;76.85;;;27.65;;
39728;SDS011;25402;42.004;23.088;2024-01-15T07:08:32;68.93;;;28.67;;
39728;SDS011;25402;42.004;23.088;2024-01-15T07:10:59;82.03;;;30.05;;
39728;SDS011;25402;42.004;23.088;2024-01-15T07:13:31;69.35;;;28.17;;
39728;SDS011;25402;42.004;23.088;2024-01-15T07:16:00;75.43;;;27.73;;
39728;SDS011;25402;42.004;23.088;2024-01-15T07:18:27;90.55;;;26.90;;
39728;SDS011;25402;42.004;23.088;2024-01-15T07:20:54;77.13;;;29.92;;
39728;SDS011;25402;42.004;23.088;2024-01-15T07:23:21;92.97;;;32.95;;
39728;SDS011;25402;42.004;23.088;2024-01-15T07:25:48;82.82;;;32.72;;
39728;SDS011;25402;42.004;23.088;2024-01-15T07:28:15;92.63;;;32.83;;
39728;SDS011;25402;42.004;23.088;2024-01-15T07:30:42;97.03;;;35.75;;
39728;SDS011;25402;42.004;23.088;2024-01-15T07:33:12;100.57;;;37.60;;
39728;SDS011;25402;42.004;23.088;2024-01-15T07:35:40;111.60;;;39.85;;
39728;SDS011;25402;42.004;23.088;2024-01-15T07:38:07;100.70;;;38.67;;
39728;SDS011;25402;42.004;23.088;2024-01-15T07:40:37;111.53;;;41.45;;
39728;SDS011;25402;42.004;23.088;2024-01-15T07:43:04;109.35;;;42.30;;
39728;SDS011;25402;42.004;23.088;2024-01-15T07:45:31;89.00;;;37.72;;
39728;SDS011;25402;42.004;23.088;2024-01-15T07:47:58;125.40;;;39.67;;
39728;SDS011;25402;42.004;23.088;2024-01-15T07:50:26;107.97;;;37.65;;
39728;SDS011;25402;42.004;23.088;2024-01-15T07:52:53;122.30;;;36.25;;
39728;SDS011;25402;42.004;23.088;2024-01-15T07:55:20;94.25;;;35.40;;
39728;SDS011;25402;42.004;23.088;2024-01-15T07:57:47;88.85;;;34.97;;
39728;SDS011;25402;42.004;23.088;2024-01-15T08:00:15;100.97;;;37.42;;
39728;SDS011;25402;42.004;23.088;2024-01-15T08:02:42;98.25;;;37.38;;
39728;SDS011;25402;42.004;23.088;2024-01-15T08:05:09;88.00;;;36.03;;
39728;SDS011;25402;42.004;23.088;2024-01-15T08:07:38;122.53;;;40.58;;
39728;SDS011;25402;42.004;23.088;2024-01-15T08:10:05;120.38;;;47.92;;
39728;SDS011;25402;42.004;23.088;2024-01-15T08:12:32;107.65;;;42.03;;
39728;SDS011;25402;42.004;23.088;2024-01-15T08:15:03;96.10;;;40.92;;
39728;SDS011;25402;42.004;23.088;2024-01-15T08:17:30;101.00;;;39.03;;
39728;SDS011;25402;42.004;23.088;2024-01-15T08:19:58;88.13;;;34.88;;
39728;SDS011;25402;42.004;23.088;2024-01-15T08:22:26;74.70;;;32.78;;
39728;SDS011;25402;42.004;23.088;2024-01-15T08:24:55;85.47;;;35.28;;
39728;SDS011;25402;42.004;23.088;2024-01-15T08:27:22;101.53;;;34.72;;
39728;SDS011;25402;42.004;23.088;2024-01-15T08:29:49;92.03;;;37.08;;
39728;SDS011;25402;42.004;23.088;2024-01-15T08:32:16;80.05;;;34.20;;
39728;SDS011;25402;42.004;23.088;2024-01-15T08:34:44;85.18;;;33.63;;
39728;SDS011;25402;42.004;23.088;2024-01-15T08:37:12;72.32;;;30.27;;
39728;SDS011;25402;42.004;23.088;2024-01-15T08:39:39;97.78;;;33.20;;
39728;SDS011;25402;42.004;23.088;2024-01-15T08:42:08;117.65;;;35.42;;
39728;SDS011;25402;42.004;23.088;2024-01-15T08:44:36;153.73;;;38.22;;
39728;SDS011;25402;42.004;23.088;2024-01-15T08:47:04;126.93;;;37.80;;
39728;SDS011;25402;42.004;23.088;2024-01-15T08:49:32;103.50;;;35.75;;
39728;SDS011;25402;42.004;23.088;2024-01-15T08:51:59;79.93;;;31.65;;
39728;SDS011;25402;42.004;23.088;2024-01-15T08:54:26;82.13;;;32.42;;
39728;SDS011;25402;42.004;23.088;2024-01-15T08:56:53;70.97;;;30.10;;
39728;SDS011;25402;42.004;23.088;2024-01-15T08:59:22;81.30;;;30.75;;
39728;SDS011;25402;42.004;23.088;2024-01-15T09:01:51;76.78;;;30.52;;
39728;SDS011;25402;42.004;23.088;2024-01-15T09:04:18;85.40;;;31.98;;
39728;SDS011;25402;42.004;23.088;2024-01-15T09:06:45;150.95;;;32.67;;
39728;SDS011;25402;42.004;23.088;2024-01-15T09:09:13;74.35;;;29.50;;
39728;SDS011;25402;42.004;23.088;2024-01-15T09:11:40;75.35;;;31.45;;
39728;SDS011;25402;42.004;23.088;2024-01-15T09:14:07;85.88;;;31.45;;
39728;SDS011;25402;42.004;23.088;2024-01-15T09:16:36;75.55;;;30.23;;
39728;SDS011;25402;42.004;23.088;2024-01-15T09:19:03;70.95;;;29.58;;
39728;SDS011;25402;42.004;23.088;2024-01-15T09:21:30;75.82;;;29.67;;
39728;SDS011;25402;42.004;23.088;2024-01-15T09:23:57;78.97;;;31.27;;
39728;SDS011;25402;42.004;23.088;2024-01-15T09:26:24;76.70;;;30.30;;
39728;SDS011;25402;42.004;23.088;2024-01-15T09:28:51;70.00;;;30.20;;
39728;SDS011;25402;42.004;23.088;2024-01-15T09:31:18;75.40;;;31.60;;
39728;SDS011;25402;42.004;23.088;2024-01-15T09:33:48;76.97;;;30.67;;
39728;SDS011;25402;42.004;23.088;2024-01-15T09:36:17;80.97;;;30.10;;
39728;SDS011;25402;42.004;23.088;2024-01-15T09:38:44;64.95;;;28.00;;
39728;SDS011;25402;42.004;23.088;2024-01-15T09:41:11;72.10;;;29.05;;
39728;SDS011;25402;42.004;23.088;2024-01-15T09:43:38;67.53;;;28.73;;
39728;SDS011;25402;42.004;23.088;2024-01-15T09:46:07;92.40;;;29.48;;
39728;SDS011;25402;42.004;23.088;2024-01-15T09:48:34;89.30;;;30.45;;
39728;SDS011;25402;42.004;23.088;2024-01-15T09:51:05;71.10;;;30.30;;
39728;SDS011;25402;42.004;23.088;2024-01-15T09:53:34;72.38;;;30.98;;
39728;SDS011;25402;42.004;23.088;2024-01-15T09:56:03;67.65;;;29.52;;
39728;SDS011;25402;42.004;23.088;2024-01-15T09:58:31;86.43;;;30.95;;
39728;SDS011;25402;42.004;23.088;2024-01-15T10:01:00;77.57;;;30.98;;
39728;SDS011;25402;42.004;23.088;2024-01-15T10:03:29;78.20;;;31.75;;
39728;SDS011;25402;42.004;23.088;2024-01-15T10:05:56;68.30;;;29.48;;
39728;SDS011;25402;42.004;23.088;2024-01-15T10:08:27;94.10;;;36.58;;
39728;SDS011;25402;42.004;23.088;2024-01-15T10:10:55;121.15;;;42.40;;
39728;SDS011;25402;42.004;23.088;2024-01-15T10:13:22;89.82;;;33.92;;
39728;SDS011;25402;42.004;23.088;2024-01-15T10:15:49;82.43;;;34.85;;
39728;SDS011;25402;42.004;23.088;2024-01-15T10:18:16;82.22;;;33.25;;
39728;SDS011;25402;42.004;23.088;2024-01-15T10:20:43;82.47;;;36.33;;
39728;SDS011;25402;42.004;23.088;2024-01-15T10:23:11;82.63;;;33.90;;
39728;SDS011;25402;42.004;23.088;2024-01-15T10:25:40;88.45;;;36.88;;
39728;SDS011;25402;42.004;23.088;2024-01-15T10:28:08;94.93;;;39.67;;
39728;SDS011;25402;42.004;23.088;2024-01-15T10:30:35;114.97;;;42.85;;
39728;SDS011;25402;42.004;23.088;2024-01-15T10:33:03;130.80;;;45.58;;
39728;SDS011;25402;42.004;23.088;2024-01-15T10:35:31;110.97;;;40.00;;
39728;SDS011;25402;42.004;23.088;2024-01-15T10:37:59;109.72;;;44.90;;
39728;SDS011;25402;42.004;23.088;2024-01-15T10:40:26;97.00;;;41.67;;
39728;SDS011;25402;42.004;23.088;2024-01-15T10:42:55;112.05;;;48.40;;
39728;SDS011;25402;42.004;23.088;2024-01-15T10:45:24;91.65;;;39.85;;
39728;SDS011;25402;42.004;23.088;2024-01-15T10:47:52;88.25;;;40.13;;
39728;SDS011;25402;42.004;23.088;2024-01-15T10:53:17;107.22;;;43.20;;
39728;SDS011;25402;42.004;23.088;2024-01-15T10:55:44;138.75;;;44.38;;
39728;SDS011;25402;42.004;23.088;2024-01-15T10:58:15;113.68;;;42.60;;
39728;SDS011;25402;42.004;23.088;2024-01-15T11:00:46;102.63;;;44.03;;
39728;SDS011;25402;42.004;23.088;2024-01-15T11:03:18;113.50;;;44.50;;
39728;SDS011;25402;42.004;23.088;2024-01-15T11:05:48;111.60;;;44.58;;
39728;SDS011;25402;42.004;23.088;2024-01-15T11:08:16;116.78;;;46.60;;
39728;SDS011;25402;42.004;23.088;2024-01-15T11:10:45;138.80;;;49.45;;
39728;SDS011;25402;42.004;23.088;2024-01-15T11:13:18;123.57;;;50.40;;
39728;SDS011;25402;42.004;23.088;2024-01-15T11:15:59;135.73;;;52.67;;
39728;SDS011;25402;42.004;23.088;2024-01-15T11:18:27;122.25;;;51.35;;
39728;SDS011;25402;42.004;23.088;2024-01-15T11:23:48;125.22;;;51.85;;
39728;SDS011;25402;42.004;23.088;2024-01-15T11:26:30;131.18;;;47.63;;
39728;SDS011;25402;42.004;23.088;2024-01-15T11:29:00;118.28;;;48.70;;
39728;SDS011;25402;42.004;23.088;2024-01-15T11:31:29;124.43;;;50.90;;
39728;SDS011;25402;42.004;23.088;2024-01-15T11:33:56;115.70;;;49.75;;
39728;SDS011;25402;42.004;23.088;2024-01-15T11:39:40;120.95;;;51.15;;
39728;SDS011;25402;42.004;23.088;2024-01-15T11:42:10;131.15;;;52.95;;
39728;SDS011;25402;42.004;23.088;2024-01-15T11:44:39;138.30;;;55.00;;
39728;SDS011;25402;42.004;23.088;2024-01-15T11:47:07;136.80;;;54.20;;
39728;SDS011;25402;42.004;23.088;2024-01-15T11:49:45;135.77;;;53.58;;
39728;SDS011;25402;42.004;23.088;2024-01-15T11:52:30;127.95;;;52.88;;
39728;SDS011;25402;42.004;23.088;2024-01-15T11:55:00;153.27;;;58.70;;
39728;SDS011;25402;42.004;23.088;2024-01-15T11:57:37;152.95;;;59.90;;
39728;SDS011;25402;42.004;23.088;2024-01-15T12:00:10;172.45;;;65.28;;
39728;SDS011;25402;42.004;23.088;2024-01-15T12:02:39;200.00;;;72.72;;
39728;SDS011;25402;42.004;23.088;2024-01-15T12:05:08;221.15;;;88.68;;
39728;SDS011;25402;42.004;23.088;2024-01-15T12:07:35;251.98;;;104.88;;
39728;SDS011;25402;42.004;23.088;2024-01-15T12:10:03;218.23;;;97.10;;
39728;SDS011;25402;42.004;23.088;2024-01-15T12:12:37;235.65;;;90.55;;
39728;SDS011;25402;42.004;23.088;2024-01-15T12:15:15;174.75;;;76.20;;
39728;SDS011;25402;42.004;23.088;2024-01-15T12:17:42;180.90;;;76.70;;
39728;SDS011;25402;42.004;23.088;2024-01-15T12:20:10;187.80;;;70.95;;
39728;SDS011;25402;42.004;23.088;2024-01-15T12:22:38;168.68;;;66.53;;
39728;SDS011;25402;42.004;23.088;2024-01-15T12:25:05;147.27;;;55.55;;
39728;SDS011;25402;42.004;23.088;2024-01-15T12:27:33;161.10;;;58.10;;
39728;SDS011;25402;42.004;23.088;2024-01-15T12:30:00;162.77;;;60.15;;
39728;SDS011;25402;42.004;23.088;2024-01-15T12:32:29;129.52;;;50.47;;
39728;SDS011;25402;42.004;23.088;2024-01-15T12:34:56;98.72;;;40.08;;
39728;SDS011;25402;42.004;23.088;2024-01-15T12:37:23;71.88;;;24.75;;
39728;SDS011;25402;42.004;23.088;2024-01-15T12:39:51;19.08;;;5.65;;
39728;SDS011;25402;42.004;23.088;2024-01-15T12:42:20;12.75;;;4.43;;
39728;SDS011;25402;42.004;23.088;2024-01-15T12:44:48;25.35;;;5.25;;
39728;SDS011;25402;42.004;23.088;2024-01-15T12:47:15;10.23;;;4.00;;
39728;SDS011;25402;42.004;23.088;2024-01-15T12:49:47;57.33;;;5.07;;
39728;SDS011;25402;42.004;23.088;2024-01-15T12:52:19;12.60;;;4.57;;
39728;SDS011;25402;42.004;23.088;2024-01-15T12:54:46;50.78;;;8.07;;
39728;SDS011;25402;42.004;23.088;2024-01-15T12:57:20;15.10;;;6.13;;
39728;SDS011;25402;42.004;23.088;2024-01-15T12:59:47;18.02;;;4.30;;
39728;SDS011;25402;42.004;23.088;2024-01-15T13:02:15;15.45;;;4.15;;
39728;SDS011;25402;42.004;23.088;2024-01-15T13:04:42;18.85;;;4.22;;
39728;SDS011;25402;42.004;23.088;2024-01-15T13:07:11;10.60;;;3.80;;
39728;SDS011;25402;42.004;23.088;2024-01-15T13:09:38;9.10;;;3.75;;
39728;SDS011;25402;42.004;23.088;2024-01-15T13:12:06;9.10;;;4.60;;
39728;SDS011;25402;42.004;23.088;2024-01-15T13:14:33;13.80;;;4.47;;
39728;SDS011;25402;42.004;23.088;2024-01-15T13:17:00;11.57;;;4.03;;
39728;SDS011;25402;42.004;23.088;2024-01-15T13:19:28;10.73;;;4.13;;
39728;SDS011;25402;42.004;23.088;2024-01-15T13:21:58;8.48;;;3.78;;
39728;SDS011;25402;42.004;23.088;2024-01-15T13:24:30;8.77;;;3.90;;
39728;SDS011;25402;42.004;23.088;2024-01-15T13:27:01;11.55;;;4.15;;
39728;SDS011;25402;42.004;23.088;2024-01-15T13:29:29;28.20;;;5.07;;
39728;SDS011;25402;42.004;23.088;2024-01-15T13:31:56;9.23;;;4.72;;
39728;SDS011;25402;42.004;23.088;2024-01-15T13:34:24;11.38;;;4.28;;
39728;SDS011;25402;42.004;23.088;2024-01-15T13:36:51;13.80;;;4.30;;
39728;SDS011;25402;42.004;23.088;2024-01-15T13:39:19;8.18;;;3.97;;
39728;SDS011;25402;42.004;23.088;2024-01-15T13:41:48;8.68;;;3.47;;
39728;SDS011;25402;42.004;23.088;2024-01-15T13:44:15;15.77;;;4.43;;
39728;SDS011;25402;42.004;23.088;2024-01-15T13:46:43;9.43;;;4.20;;
39728;SDS011;25402;42.004;23.088;2024-01-15T13:49:10;7.68;;;3.70;;
39728;SDS011;25402;42.004;23.088;2024-01-15T13:51:37;8.77;;;4.28;;
39728;SDS011;25402;42.004;23.088;2024-01-15T13:54:07;7.40;;;3.45;;
39728;SDS011;25402;42.004;23.088;2024-01-15T13:56:34;7.40;;;4.15;;
39728;SDS011;25402;42.004;23.088;2024-01-15T13:59:03;11.63;;;4.80;;
39728;SDS011;25402;42.004;23.088;2024-01-15T14:01:30;9.82;;;4.38;;
39728;SDS011;25402;42.004;23.088;2024-01-15T14:03:58;10.95;;;4.38;;
39728;SDS011;25402;42.004;23.088;2024-01-15T14:06:25;10.98;;;4.75;;
39728;SDS011;25402;42.004;23.088;2024-01-15T14:08:52;6.55;;;3.58;;
39728;SDS011;25402;42.004;23.088;2024-01-15T14:11:20;11.73;;;5.63;;
39728;SDS011;25402;42.004;23.088;2024-01-15T14:13:48;8.85;;;4.43;;
39728;SDS011;25402;42.004;23.088;2024-01-15T14:16:16;8.63;;;4.32;;
39728;SDS011;25402;42.004;23.088;2024-01-15T14:18:43;20.65;;;4.38;;
39728;SDS011;25402;42.004;23.088;2024-01-15T14:21:13;14.20;;;5.10;;
39728;SDS011;25402;42.004;23.088;2024-01-15T14:23:40;11.80;;;4.90;;